Time;durP1;ratioP1;P1;durP2;ratioP2;P2;SDS_P1;SDS_P2;PMS_P1;PMS_P2;Temp;Humidity;BMP_temperature;BMP_pressure;BME280_temperature;BME280_humidity;BME280_pressure;Samples;Min_cycle;Max_cycle;Signal;HPM_P1;HPM_P2
2022/08/02 00:00:29;;;;;;;6.30;2.77;;;;;;;15.97;70.27;101171.97;5031515;28;20313;-84
2022/08/02 00:02:55;;;;;;;4.90;2.60;;;;;;;15.93;70.76;101169.66;5033818;28;20210;-84
2022/08/02 00:05:22;;;;;;;6.40;2.63;;;;;;;15.89;71.22;101166.34;5032897;28;20203;-84
2022/08/02 00:07:49;;;;;;;11.50;3.63;;;;;;;15.89;71.62;101162.81;5034584;28;20234;-84
2022/08/02 00:10:15;;;;;;;4.77;2.73;;;;;;;15.85;71.10;101164.88;5031386;28;20202;-84
2022/08/02 00:12:43;;;;;;;7.90;3.27;;;;;;;15.77;71.35;101164.59;5034462;28;20239;-84
2022/08/02 00:15:11;;;;;;;5.90;3.20;;;;;;;15.70;71.52;101159.81;5031743;28;20570;-84
2022/08/02 00:17:38;;;;;;;6.07;3.00;;;;;;;15.65;71.85;101152.13;5032763;28;20206;-84
2022/08/02 00:20:05;;;;;;;3.47;2.43;;;;;;;15.61;72.84;101142.56;5031997;28;20203;-85
2022/08/02 00:22:32;;;;;;;7.43;3.70;;;;;;;15.60;73.21;101143.53;5033644;28;20225;-84
2022/08/02 00:24:58;;;;;;;5.97;3.07;;;;;;;15.61;73.71;101150.63;5032382;28;20202;-84
2022/08/02 00:27:25;;;;;;;4.30;2.57;;;;;;;15.63;73.94;101154.06;5029727;28;20203;-85
2022/08/02 00:29:54;;;;;;;6.30;3.00;;;;;;;15.66;74.09;101151.16;5028144;28;20217;-84
2022/08/02 00:32:20;;;;;;;3.63;2.50;;;;;;;15.68;73.97;101151.88;5026805;28;20228;-84
2022/08/02 00:34:47;;;;;;;2.90;2.10;;;;;;;15.67;73.87;101155.53;5031981;28;20211;-84
2022/08/02 00:37:17;;;;;;;6.63;2.97;;;;;;;15.63;73.25;101149.53;5030224;28;20640;-84
2022/08/02 00:39:44;;;;;;;3.57;2.40;;;;;;;15.57;73.48;101151.88;5032942;28;20246;-84
2022/08/02 00:42:10;;;;;;;3.33;2.30;;;;;;;15.55;73.56;101159.13;5027362;28;20238;-84
2022/08/02 00:44:37;;;;;;;7.67;2.87;;;;;;;15.54;73.72;101162.78;5033579;28;20296;-84
2022/08/02 00:47:05;;;;;;;4.97;2.10;;;;;;;15.53;74.08;101155.72;5033497;28;20298;-84
2022/08/02 00:49:32;;;;;;;7.20;3.03;;;;;;;15.54;73.98;101163.66;5032629;28;20294;-84
2022/08/02 00:51:59;;;;;;;7.20;2.77;;;;;;;15.54;74.31;101163.66;5040344;28;20222;-84
2022/08/02 00:54:25;;;;;;;4.20;2.83;;;;;;;15.54;74.63;101165.47;5032372;28;20211;-85
2022/08/02 00:56:52;;;;;;;5.03;2.70;;;;;;;15.51;74.18;101166.56;5032340;28;20619;-85
2022/08/02 00:59:18;;;;;;;4.30;1.93;;;;;;;15.47;74.17;101175.81;5033752;28;20201;-84
2022/08/02 01:01:45;;;;;;;3.50;2.10;;;;;;;15.44;74.06;101169.81;5027999;28;20238;-85
2022/08/02 01:04:14;;;;;;;2.60;2.20;;;;;;;15.40;74.55;101171.03;5030581;28;20203;-84
2022/08/02 01:06:42;;;;;;;8.63;2.77;;;;;;;15.37;74.42;101163.22;5031952;28;20676;-83
2022/08/02 01:09:09;;;;;;;3.27;2.47;;;;;;;15.31;73.91;101172.56;5029817;28;20203;-84
2022/08/02 01:11:36;;;;;;;6.10;2.53;;;;;;;15.22;73.73;101171.44;5030451;28;20241;-85
2022/08/02 01:14:07;;;;;;;2.97;2.60;;;;;;;15.14;73.76;101170.28;5029868;28;20201;-84
2022/08/02 01:16:37;;;;;;;4.17;2.30;;;;;;;15.02;73.85;101164.00;5030269;28;20198;-84
2022/08/02 01:19:28;;;;;;;5.80;2.13;;;;;;;14.99;74.53;101158.88;5033872;28;20285;-85
2022/08/02 01:22:13;;;;;;;5.10;2.20;;;;;;;14.97;74.82;101165.31;5032497;28;20596;-84
2022/08/02 01:25:07;;;;;;;5.17;2.70;;;;;;;14.94;74.86;101161.03;5029570;28;20782;-85
2022/08/02 01:27:47;;;;;;;4.80;2.37;;;;;;;14.89;74.54;101158.69;5027336;28;20199;-84
2022/08/02 01:30:17;;;;;;;4.67;2.00;;;;;;;14.81;74.06;101155.72;5032343;28;20218;-84
2022/08/02 01:32:50;;;;;;;3.60;2.10;;;;;;;14.73;74.54;101154.53;5028349;28;20206;-85
2022/08/02 01:35:22;;;;;;;5.00;2.30;;;;;;;14.63;74.68;101153.50;5029945;28;20232;-84
2022/08/02 01:37:53;;;;;;;4.67;2.10;;;;;;;14.62;75.02;101154.47;5032277;28;20708;-84
2022/08/02 01:40:25;;;;;;;3.13;2.00;;;;;;;14.59;75.47;101161.75;5028069;28;20198;-84
2022/08/02 01:42:56;;;;;;;4.03;2.30;;;;;;;14.57;75.37;101152.97;5029394;28;20198;-84
2022/08/02 01:45:26;;;;;;;3.97;1.80;;;;;;;14.58;75.84;101152.00;5031812;28;20206;-84
2022/08/02 01:47:54;;;;;;;2.83;2.10;;;;;;;14.57;76.11;101141.41;5032407;28;20771;-84
2022/08/02 01:50:26;;;;;;;4.40;2.30;;;;;;;14.54;75.76;101147.81;5030934;28;20217;-84
2022/08/02 01:52:56;;;;;;;4.57;2.27;;;;;;;14.53;75.93;101150.63;5026025;28;20289;-84
2022/08/02 01:55:25;;;;;;;3.80;2.47;;;;;;;14.50;75.51;101146.38;5029736;28;20285;-84
2022/08/02 01:57:55;;;;;;;3.77;2.33;;;;;;;14.48;75.67;101150.97;5031272;28;20249;-84
2022/08/02 02:00:25;;;;;;;3.73;2.20;;;;;;;14.49;76.43;101147.31;5027096;28;20266;-84
2022/08/02 02:02:55;;;;;;;5.60;2.17;;;;;;;14.49;76.54;101158.03;5029548;28;20289;-85
2022/08/02 02:05:24;;;;;;;5.23;2.83;;;;;;;14.46;76.56;101158.25;5032469;28;20667;-85
2022/08/02 02:07:55;;;;;;;3.77;2.20;;;;;;;14.45;76.31;101153.00;5032237;28;20255;-86
2022/08/02 02:10:27;;;;;;;3.97;2.13;;;;;;;14.44;76.42;101159.34;5030760;28;20199;-85
2022/08/02 02:12:56;;;;;;;2.67;2.20;;;;;;;14.39;75.82;101158.75;5027953;28;20233;-85
2022/08/02 02:15:26;;;;;;;2.93;2.00;;;;;;;14.29;75.77;101153.22;5030672;28;20194;-84
2022/08/02 02:17:54;;;;;;;2.77;1.77;;;;;;;14.22;75.38;101154.59;5026995;28;20211;-85
2022/08/02 02:20:22;;;;;;;5.43;2.20;;;;;;;14.17;75.53;101154.06;5029207;28;20210;-84
2022/08/02 02:22:49;;;;;;;8.60;2.50;;;;;;;14.14;76.17;101143.59;5031425;28;20300;-85
2022/08/02 02:25:18;;;;;;;6.10;2.83;;;;;;;14.14;76.21;101148.94;5031746;28;20572;-84
2022/08/02 02:27:52;;;;;;;4.03;2.03;;;;;;;14.13;76.32;101139.19;5028635;28;20199;-84
2022/08/02 02:30:19;;;;;;;4.07;2.00;;;;;;;14.09;76.22;101146.56;5027500;28;20736;-84
2022/08/02 02:32:48;;;;;;;4.47;2.27;;;;;;;14.03;76.38;101151.50;5026111;28;20209;-85
2022/08/02 02:35:17;;;;;;;2.87;2.40;;;;;;;13.97;76.54;101141.22;5032842;28;20291;-84
2022/08/02 02:37:45;;;;;;;4.67;2.23;;;;;;;13.92;76.37;101144.22;5032022;28;20218;-84
2022/08/02 02:40:13;;;;;;;6.63;2.83;;;;;;;13.88;77.06;101146.25;5032758;28;20237;-84
2022/08/02 02:42:42;;;;;;;5.07;2.60;;;;;;;13.86;77.28;101137.47;5030410;28;20225;-84
2022/08/02 02:45:10;;;;;;;4.23;2.20;;;;;;;13.84;77.18;101141.19;5030482;28;20202;-84
2022/08/02 02:47:38;;;;;;;6.20;2.43;;;;;;;13.82;77.44;101141.31;5026125;28;20203;-84
2022/08/02 02:50:07;;;;;;;6.27;2.37;;;;;;;13.82;77.79;101137.75;5030007;28;20671;-85
2022/08/02 02:52:36;;;;;;;3.83;2.30;;;;;;;13.81;78.09;101134.22;5030783;28;20223;-84
2022/08/02 02:55:04;;;;;;;3.27;2.20;;;;;;;13.81;77.79;101141.41;5025116;28;20202;-85
2022/08/02 02:57:31;;;;;;;5.03;2.40;;;;;;;13.82;78.13;101133.28;5030300;28;20218;-85
2022/08/02 02:59:58;;;;;;;6.37;3.40;;;;;;;13.83;78.07;101134.13;5030428;28;20220;-84
2022/08/02 03:02:24;;;;;;;4.53;2.40;;;;;;;13.80;78.29;101118.28;5032676;28;20234;-84
2022/08/02 03:04:53;;;;;;;7.10;2.77;;;;;;;13.75;77.99;101113.25;5031407;28;20210;-85
2022/08/02 03:07:21;;;;;;;4.00;2.60;;;;;;;13.73;78.42;101120.53;5027590;28;20211;-84
2022/08/02 03:09:48;;;;;;;3.50;2.57;;;;;;;13.73;78.90;101119.69;5024987;28;20292;-85
2022/08/02 03:12:15;;;;;;;7.70;2.73;;;;;;;13.74;78.99;101116.91;5026745;28;20317;-84
2022/08/02 03:14:43;;;;;;;3.93;2.37;;;;;;;13.76;79.40;101120.34;5021534;28;20548;-84
2022/08/02 03:17:09;;;;;;;5.40;2.77;;;;;;;13.76;79.24;101123.00;5021189;28;20202;-84
2022/08/02 03:19:36;;;;;;;7.67;3.37;;;;;;;13.77;79.77;101114.00;5027789;28;20206;-84
2022/08/02 03:22:03;;;;;;;4.57;3.13;;;;;;;13.80;79.76;101111.09;5025169;28;20226;-85
2022/08/02 03:24:31;;;;;;;7.10;3.03;;;;;;;13.79;79.59;101109.38;5023803;28;20201;-85
2022/08/02 03:26:58;;;;;;;5.93;2.33;;;;;;;13.77;79.30;101113.16;5026174;28;20260;-84
2022/08/02 03:29:24;;;;;;;7.33;2.83;;;;;;;13.75;80.04;101118.63;5039019;28;20245;-84
2022/08/02 03:31:51;;;;;;;4.53;2.53;;;;;;;13.75;79.64;101123.13;5051760;28;20778;-84
2022/08/02 03:34:18;;;;;;;5.97;2.80;;;;;;;13.70;79.53;101115.38;5049893;28;20204;-84
2022/08/02 03:36:48;;;;;;;6.97;2.80;;;;;;;13.63;78.98;101113.22;5049621;28;20209;-85
2022/08/02 03:39:15;;;;;;;5.67;2.23;;;;;;;13.53;78.83;101108.53;5049729;28;20229;-83
2022/08/02 03:41:44;;;;;;;6.33;2.90;;;;;;;13.48;79.20;101117.81;5044668;28;20238;-85
2022/08/02 03:44:12;;;;;;;5.47;2.70;;;;;;;13.47;79.77;101126.81;5048436;28;20340;-84
2022/08/02 03:46:39;;;;;;;4.90;2.87;;;;;;;13.44;79.63;101124.31;5047764;28;20205;-85
2022/08/02 03:49:07;;;;;;;5.23;3.23;;;;;;;13.39;79.54;101121.13;5048840;28;20251;-83
2022/08/02 03:51:34;;;;;;;4.83;3.00;;;;;;;13.35;79.87;101122.28;5047425;28;20233;-84
2022/08/02 03:54:01;;;;;;;3.70;2.80;;;;;;;13.30;80.13;101116.38;5052757;28;20664;-84
2022/08/02 03:56:28;;;;;;;6.83;2.60;;;;;;;13.24;80.18;101115.00;5051311;28;20205;-84
2022/08/02 03:59:07;;;;;;;5.50;3.20;;;;;;;13.17;80.32;101108.34;5048576;28;20205;-84
2022/08/02 04:01:33;;;;;;;7.53;3.20;;;;;;;13.13;81.03;101118.34;5050129;28;20322;-84
2022/08/02 04:04:00;;;;;;;5.07;2.90;;;;;;;13.15;81.20;101118.28;5054903;28;20229;-84
2022/08/02 04:06:26;;;;;;;9.23;3.60;;;;;;;13.15;81.67;101119.13;5054520;28;20205;-84
2022/08/02 04:08:53;;;;;;;6.90;3.50;;;;;;;13.16;81.93;101122.66;5055691;28;20229;-85
2022/08/02 04:11:31;;;;;;;8.40;4.10;;;;;;;13.15;82.16;101128.97;5055044;28;20256;-85
2022/08/02 04:13:59;;;;;;;6.17;2.97;;;;;;;13.17;82.10;101124.38;5053606;28;20756;-84
2022/08/02 04:16:38;;;;;;;7.33;4.13;;;;;;;13.17;82.46;101135.06;5047110;28;20209;-84
2022/08/02 04:19:08;;;;;;;5.10;3.33;;;;;;;13.20;83.24;101141.09;5052847;28;20204;-83
2022/08/02 04:21:38;;;;;;;8.17;3.60;;;;;;;13.23;83.12;101149.88;5054135;28;20301;-84
2022/08/02 04:24:08;;;;;;;6.23;4.17;;;;;;;13.23;83.12;101144.53;5057162;28;20210;-85
2022/08/02 04:26:36;;;;;;;8.17;3.40;;;;;;;13.23;83.33;101148.06;5053267;28;20233;-84
2022/08/02 04:29:04;;;;;;;5.63;3.47;;;;;;;13.23;83.71;101149.88;5045066;28;20260;-84
2022/08/02 04:31:33;;;;;;;8.97;3.47;;;;;;;13.26;83.94;101157.66;5031087;28;20253;-84
2022/08/02 04:34:00;;;;;;;8.90;3.40;;;;;;;13.28;84.01;101155.75;5033887;28;20278;-84
2022/08/02 04:36:27;;;;;;;7.70;3.40;;;;;;;13.29;83.79;101152.13;5033035;28;20297;-83
2022/08/02 04:38:53;;;;;;;6.93;3.00;;;;;;;13.27;83.37;101146.88;5034059;28;20221;-84
2022/08/02 04:41:20;;;;;;;7.93;3.30;;;;;;;13.24;83.16;101147.09;5034765;28;20218;-83
2022/08/02 04:43:46;;;;;;;5.17;3.50;;;;;;;13.23;83.51;101145.38;5036086;28;20619;-84
2022/08/02 04:46:13;;;;;;;6.67;3.53;;;;;;;13.22;83.55;101140.13;5037183;28;20206;-84
2022/08/02 04:48:41;;;;;;;6.73;3.70;;;;;;;13.22;83.97;101141.00;5035357;28;20582;-86
2022/08/02 04:51:08;;;;;;;7.90;3.90;;;;;;;13.23;84.39;101136.50;5034529;28;20222;-84
2022/08/02 04:53:34;;;;;;;6.30;3.77;;;;;;;13.26;84.57;101130.91;5037070;28;20968;-84
2022/08/02 04:56:01;;;;;;;7.13;3.77;;;;;;;13.27;84.83;101136.16;5028539;28;20212;-83
2022/08/02 04:58:27;;;;;;;6.07;4.03;;;;;;;13.31;85.12;101135.00;5038170;28;20222;-84
2022/08/02 05:00:54;;;;;;;4.60;3.70;;;;;;;13.34;85.08;101131.28;5036042;28;20649;-83
2022/08/02 05:03:20;;;;;;;6.77;4.10;;;;;;;13.35;85.50;101133.84;5037289;28;20693;-83
2022/08/02 05:05:48;;;;;;;5.27;4.13;;;;;;;13.38;85.73;101130.13;5036739;28;20223;-85
2022/08/02 05:08:15;;;;;;;7.27;3.87;;;;;;;13.42;85.89;101131.63;5038976;28;20293;-85
2022/08/02 05:10:42;;;;;;;5.73;3.90;;;;;;;13.45;86.23;101134.06;5028144;28;20257;-83
2022/08/02 05:13:08;;;;;;;5.73;3.70;;;;;;;13.47;86.43;101134.81;5030164;28;20306;-84
2022/08/02 05:15:35;;;;;;;8.23;4.13;;;;;;;13.50;86.67;101143.50;5034822;28;20293;-84
2022/08/02 05:18:01;;;;;;;8.30;4.23;;;;;;;13.51;86.82;101139.88;5033478;28;20202;-83
2022/08/02 05:20:28;;;;;;;7.83;4.37;;;;;;;13.54;86.74;101144.16;5034033;28;20307;-83
2022/08/02 05:22:56;;;;;;;7.57;4.23;;;;;;;13.56;87.18;101144.94;5038953;28;20218;-83
2022/08/02 05:25:22;;;;;;;8.73;4.47;;;;;;;13.60;87.36;101146.44;5034317;28;20722;-83
2022/08/02 05:27:49;;;;;;;7.70;4.67;;;;;;;13.64;87.13;101141.72;5034407;28;20210;-84
2022/08/02 05:30:15;;;;;;;8.07;4.47;;;;;;;13.68;87.74;101141.41;5034245;28;20599;-83
2022/08/02 05:32:47;;;;;;;7.83;4.87;;;;;;;13.74;87.71;101140.13;5034877;28;20210;-83
2022/08/02 05:35:17;;;;;;;7.90;5.10;;;;;;;13.81;87.97;101139.59;5032671;28;20567;-84
2022/08/02 05:37:44;;;;;;;7.87;4.93;;;;;;;13.89;88.12;101145.28;5035447;28;20337;-84
2022/08/02 05:40:12;;;;;;;8.93;5.23;;;;;;;13.96;88.03;101137.69;5031982;28;20273;-85
2022/08/02 05:42:38;;;;;;;8.97;5.33;;;;;;;14.07;88.63;101148.50;5030873;28;20230;-84
2022/08/02 05:45:06;;;;;;;11.90;6.00;;;;;;;14.16;88.45;101144.31;5027040;28;20225;-83
2022/08/02 05:47:33;;;;;;;10.47;5.30;;;;;;;14.24;88.31;101150.00;5024480;28;20230;-83
2022/08/02 05:50:00;;;;;;;8.53;6.20;;;;;;;14.31;87.31;101145.94;5033554;28;20198;-84
2022/08/02 05:52:36;;;;;;;9.63;5.83;;;;;;;14.38;87.46;101147.19;5033838;28;20234;-83
2022/08/02 05:55:06;;;;;;;9.83;5.10;;;;;;;14.45;87.27;101147.66;5031129;28;20205;-83
2022/08/02 05:57:41;;;;;;;10.83;5.50;;;;;;;14.52;87.19;101152.44;5031940;28;20633;-84
2022/08/02 06:00:10;;;;;;;11.27;5.40;;;;;;;14.61;86.64;101152.75;5029249;28;20235;-84
2022/08/02 06:02:57;;;;;;;7.80;4.73;;;;;;;14.69;86.17;101159.25;5030834;28;20801;-85
2022/08/02 06:05:27;;;;;;;7.03;4.83;;;;;;;14.77;85.85;101159.56;5023060;28;20199;-83
2022/08/02 06:07:58;;;;;;;9.30;4.77;;;;;;;14.86;85.58;101158.94;5033703;28;20210;-84
2022/08/02 06:10:27;;;;;;;9.63;5.17;;;;;;;14.96;85.18;101152.88;5033946;28;20217;-84
2022/08/02 06:13:04;;;;;;;5.10;4.60;;;;;;;15.06;84.75;101156.56;5031999;28;20202;-84
2022/08/02 06:15:30;;;;;;;8.83;5.23;;;;;;;15.17;84.21;101156.66;5033240;28;20328;-84
2022/08/02 06:17:57;;;;;;;10.80;5.37;;;;;;;15.29;84.20;101158.41;5029974;28;20203;-83
2022/08/02 06:20:24;;;;;;;9.70;5.50;;;;;;;15.42;83.13;101155.66;5032300;28;20892;-83
2022/08/02 06:22:52;;;;;;;17.10;6.00;;;;;;;15.52;82.54;101154.00;5030098;28;20230;-83
2022/08/02 06:25:21;;;;;;;10.17;5.80;;;;;;;15.64;82.19;101163.81;5032495;28;20648;-83
2022/08/02 06:27:49;;;;;;;8.77;5.27;;;;;;;15.74;81.07;101151.44;5026654;28;20207;-82
2022/08/02 06:30:17;;;;;;;12.27;5.57;;;;;;;15.86;80.76;101144.25;5027588;28;20229;-83
2022/08/02 06:32:45;;;;;;;10.97;5.37;;;;;;;16.01;80.54;101136.81;5022740;28;20314;-83
2022/08/02 06:35:11;;;;;;;7.47;5.27;;;;;;;16.15;80.25;101131.19;5023655;28;20205;-83
2022/08/02 06:37:43;;;;;;;7.70;5.03;;;;;;;16.29;79.36;101142.59;5027765;28;20217;-84
2022/08/02 06:40:18;;;;;;;8.57;4.57;;;;;;;16.44;78.52;101140.50;5020463;28;20962;-84
2022/08/02 06:42:50;;;;;;;8.60;4.17;;;;;;;16.58;77.73;101137.56;5021031;28;20212;-83
2022/08/02 06:45:18;;;;;;;6.03;3.80;;;;;;;16.70;77.00;101134.88;5021886;28;20728;-82
2022/08/02 06:47:45;;;;;;;12.20;4.07;;;;;;;16.85;76.59;101139.00;5027357;28;20213;-83
2022/08/02 06:50:12;;;;;;;8.47;4.03;;;;;;;17.01;75.87;101142.16;5027749;28;20684;-84
2022/08/02 06:52:39;;;;;;;9.33;3.90;;;;;;;17.15;75.32;101136.50;5024858;28;20314;-86
2022/08/02 06:55:06;;;;;;;11.70;4.17;;;;;;;17.29;74.66;101144.28;5029862;28;20209;-85
2022/08/02 06:57:34;;;;;;;5.13;3.73;;;;;;;17.46;74.13;101139.31;5024617;28;20203;-84
2022/08/02 07:00:02;;;;;;;12.33;4.23;;;;;;;17.60;73.48;101142.53;5025363;28;20209;-84
2022/08/02 07:02:30;;;;;;;8.13;4.10;;;;;;;17.77;73.04;101138.44;5021823;28;20231;-84
2022/08/02 07:04:57;;;;;;;6.10;3.40;;;;;;;17.96;73.21;101141.25;5020162;28;20207;-85
2022/08/02 07:07:24;;;;;;;6.73;3.70;;;;;;;18.13;72.08;101128.16;5022416;28;20299;-85
2022/08/02 07:09:51;;;;;;;7.27;3.30;;;;;;;18.29;71.07;101141.97;5022313;28;20207;-85
2022/08/02 07:12:17;;;;;;;6.50;3.03;;;;;;;18.41;70.25;101127.44;5016465;28;20224;-84
2022/08/02 07:14:44;;;;;;;8.03;3.50;;;;;;;18.56;69.90;101136.88;5021680;28;20206;-85
2022/08/02 07:17:11;;;;;;;5.40;3.10;;;;;;;18.69;69.16;101137.50;5013225;28;20697;-84
2022/08/02 07:19:39;;;;;;;6.87;3.00;;;;;;;18.85;68.78;101141.50;5022057;28;20226;-84
2022/08/02 07:22:06;;;;;;;4.63;2.47;;;;;;;19.02;68.34;101138.13;5025596;28;20319;-83
2022/08/02 07:24:32;;;;;;;6.07;2.77;;;;;;;19.17;67.92;101127.81;5026717;28;20204;-83
2022/08/02 07:26:59;;;;;;;9.10;3.30;;;;;;;19.33;67.54;101110.03;5022160;28;20213;-83
2022/08/02 07:29:26;;;;;;;6.37;2.77;;;;;;;19.49;67.18;101104.06;5025699;28;20219;-83
2022/08/02 07:31:52;;;;;;;8.50;2.83;;;;;;;19.68;66.58;101092.41;5023700;28;20237;-83
2022/08/02 07:34:19;;;;;;;5.93;2.50;;;;;;;19.83;66.15;101085.53;5023167;28;20214;-83
2022/08/02 07:36:47;;;;;;;5.70;2.80;;;;;;;20.03;65.75;101091.75;5023049;28;20674;-83
2022/08/02 07:39:13;;;;;;;3.83;2.37;;;;;;;20.21;65.10;101089.97;5020654;28;20283;-84
2022/08/02 07:41:40;;;;;;;9.03;2.70;;;;;;;20.36;64.06;101076.81;5027640;28;20887;-83
2022/08/02 07:44:06;;;;;;;6.67;2.80;;;;;;;20.55;64.66;101075.88;5028104;28;20709;-84
2022/08/02 07:46:33;;;;;;;6.23;2.90;;;;;;;20.75;64.60;101072.06;5030659;28;20645;-83
2022/08/02 07:49:00;;;;;;;5.50;2.57;;;;;;;20.94;63.87;101077.34;5024484;28;20205;-85
2022/08/02 07:51:26;;;;;;;3.58;2.10;;;;;;;21.12;63.54;101069.22;5030988;28;20227;-85
2022/08/02 07:53:54;;;;;;;4.38;2.28;;;;;;;21.24;62.39;101078.84;5030234;28;20202;-84
2022/08/02 07:56:20;;;;;;;5.32;2.50;;;;;;;21.38;62.05;101074.72;5021227;28;20290;-85
2022/08/02 07:58:47;;;;;;;5.60;2.47;;;;;;;21.54;62.25;101082.13;5028924;28;20569;-83
2022/08/02 08:01:13;;;;;;;6.13;2.45;;;;;;;21.69;61.22;101081.38;5032060;28;20221;-84
2022/08/02 08:03:40;;;;;;;6.22;2.50;;;;;;;21.81;61.52;101079.28;5028934;28;20241;-83
2022/08/02 08:06:06;;;;;;;4.68;2.85;;;;;;;21.99;61.16;101082.78;5025069;28;20206;-83
2022/08/02 08:08:34;;;;;;;5.38;2.50;;;;;;;22.16;60.68;101081.91;5029123;28;20208;-83
2022/08/02 08:11:02;;;;;;;5.88;2.60;;;;;;;22.31;59.56;101073.16;5030183;28;20228;-83
2022/08/02 08:13:28;;;;;;;5.38;3.00;;;;;;;22.42;58.88;101075.56;5027493;28;20340;-84
2022/08/02 08:15:55;;;;;;;4.55;2.45;;;;;;;22.49;58.31;101085.63;5030544;28;20972;-83
2022/08/02 08:18:22;;;;;;;6.32;2.90;;;;;;;22.62;58.32;101082.41;5029623;28;20205;-83
2022/08/02 08:20:48;;;;;;;4.22;2.67;;;;;;;22.78;58.22;101081.66;5027572;28;20613;-84
2022/08/02 08:23:15;;;;;;;3.53;2.60;;;;;;;22.92;57.54;101086.47;5031496;28;20255;-84
2022/08/02 08:25:41;;;;;;;5.05;2.65;;;;;;;23.07;56.93;101086.66;5033970;28;20216;-82
2022/08/02 08:28:09;;;;;;;4.97;2.50;;;;;;;23.15;56.42;101089.38;5030693;28;20202;-82
2022/08/02 08:30:36;;;;;;;5.63;3.30;;;;;;;23.22;56.19;101082.25;5031702;28;20233;-82
2022/08/02 08:33:03;;;;;;;5.13;3.10;;;;;;;23.34;55.90;101074.59;5033299;28;20209;-83
2022/08/02 08:35:29;;;;;;;3.50;2.67;;;;;;;23.46;55.32;101070.53;5024523;28;20214;-83
2022/08/02 08:37:56;;;;;;;5.13;2.70;;;;;;;23.53;54.18;101061.56;5028141;28;20208;-83
2022/08/02 08:40:25;;;;;;;2.67;2.45;;;;;;;23.60;53.04;101052.72;5029917;28;20266;-84
2022/08/02 08:42:52;;;;;;;4.93;2.95;;;;;;;23.58;51.65;101054.75;5037871;28;20229;-84
2022/08/02 08:45:19;;;;;;;4.50;3.10;;;;;;;23.59;51.15;101053.75;5036487;28;20205;-84
2022/08/02 08:47:51;;;;;;;6.82;2.90;;;;;;;23.66;51.07;101047.41;5037446;28;20209;-85
2022/08/02 08:50:20;;;;;;;4.85;3.28;;;;;;;23.80;50.84;101048.59;5034995;28;20205;-84
2022/08/02 08:52:51;;;;;;;5.15;3.05;;;;;;;23.93;50.59;101037.19;5025038;28;20206;-83
2022/08/02 08:55:22;;;;;;;5.05;3.42;;;;;;;24.05;50.85;101042.06;5032786;28;20206;-84
2022/08/02 08:57:49;;;;;;;4.28;3.25;;;;;;;24.23;50.50;101041.81;5028370;28;20213;-83
2022/08/02 09:00:16;;;;;;;5.35;3.20;;;;;;;24.36;49.98;101035.88;5031045;28;20206;-82
2022/08/02 09:02:44;;;;;;;5.97;2.65;;;;;;;24.48;49.96;101039.88;5024491;28;20393;-82
2022/08/02 09:05:14;;;;;;;3.22;2.30;;;;;;;24.64;50.07;101039.78;5019692;28;20389;-82
2022/08/02 09:07:43;;;;;;;3.42;2.33;;;;;;;24.79;49.47;101040.72;5023538;28;20209;-82
2022/08/02 09:10:32;;;;;;;4.78;2.80;;;;;;;24.90;49.44;101043.03;5023256;28;20751;-82
2022/08/02 09:13:10;;;;;;;5.20;3.08;;;;;;;24.95;49.06;101028.88;5026068;28;20208;-84
2022/08/02 09:15:37;;;;;;;4.80;2.72;;;;;;;24.97;48.09;101026.84;5030971;28;20202;-82
2022/08/02 09:18:06;;;;;;;4.28;2.90;;;;;;;24.97;48.37;101028.72;5025531;28;20214;-83
2022/08/02 09:20:33;;;;;;;4.78;2.85;;;;;;;25.00;48.64;101025.63;5025603;28;20609;-84
2022/08/02 09:23:08;;;;;;;5.25;2.75;;;;;;;25.08;49.35;101034.56;5021622;28;20241;-83
2022/08/02 09:25:35;;;;;;;8.40;3.05;;;;;;;25.18;49.05;101037.06;5020397;28;20200;-83
2022/08/02 09:28:03;;;;;;;5.80;3.38;;;;;;;25.31;49.42;101037.28;5026100;28;20587;-83
2022/08/02 09:30:30;;;;;;;3.72;3.40;;;;;;;25.45;49.21;101031.03;5029193;28;20245;-83
2022/08/02 09:32:57;;;;;;;6.95;2.67;;;;;;;25.52;48.31;101034.72;5029172;28;20206;-82
2022/08/02 09:35:35;;;;;;;4.10;3.38;;;;;;;25.57;47.09;101032.28;5022527;28;20203;-82
2022/08/02 09:38:10;;;;;;;4.32;2.65;;;;;;;25.63;46.82;101025.25;5024431;28;20204;-82
2022/08/02 09:40:37;;;;;;;3.75;3.35;;;;;;;25.66;46.24;101024.91;5021299;28;20639;-82
2022/08/02 09:43:03;;;;;;;3.55;2.83;;;;;;;25.69;45.97;101023.69;5021491;28;20264;-83
2022/08/02 09:45:31;;;;;;;3.40;2.80;;;;;;;25.68;45.62;101027.44;5023043;28;20293;-85
2022/08/02 09:47:58;;;;;;;6.53;3.40;;;;;;;25.66;45.62;101024.91;5023138;28;20230;-83
2022/08/02 09:50:24;;;;;;;4.72;2.75;;;;;;;25.74;45.32;101018.50;5023198;28;20206;-83
2022/08/02 09:52:55;;;;;;;4.97;2.38;;;;;;;25.80;45.31;101015.03;5026328;28;20217;-83
2022/08/02 09:55:22;;;;;;;4.18;2.40;;;;;;;25.90;45.06;101021.06;5019528;28;20199;-83
2022/08/02 09:57:48;;;;;;;3.17;2.40;;;;;;;25.96;43.27;101019.47;5020309;28;20214;-83
2022/08/02 10:00:15;;;;;;;3.65;2.00;;;;;;;26.00;42.70;101027.06;5023019;28;20205;-83
2022/08/02 10:03:07;;;;;;;3.72;2.17;;;;;;;26.10;41.97;101019.47;5027675;28;20202;-84
2022/08/02 10:05:50;;;;;;;2.92;2.50;;;;;;;26.17;41.60;101025.84;5025456;28;20796;-82
2022/08/02 10:08:18;;;;;;;3.00;2.38;;;;;;;26.25;41.28;101023.03;5017750;28;20199;-83
2022/08/02 10:10:44;;;;;;;2.60;2.35;;;;;;;26.32;40.08;101017.69;5016941;28;20262;-84
2022/08/02 10:13:11;;;;;;;3.38;2.42;;;;;;;26.38;40.37;101010.59;5016166;28;20210;-83
2022/08/02 10:15:38;;;;;;;2.45;2.25;;;;;;;26.47;39.46;101012.19;5021392;28;20585;-83
2022/08/02 10:18:05;;;;;;;3.30;2.10;;;;;;;26.52;39.36;101020.63;5027882;28;20269;-84
2022/08/02 10:20:37;;;;;;;2.40;2.05;;;;;;;26.61;39.76;101014.03;5029080;28;20285;-83
2022/08/02 10:23:06;;;;;;;2.90;2.60;;;;;;;26.70;39.72;101015.59;5031966;28;20266;-84
2022/08/02 10:25:37;;;;;;;2.67;2.35;;;;;;;26.76;39.16;101020.28;5030372;28;20211;-84
2022/08/02 10:28:05;;;;;;;3.58;2.08;;;;;;;26.86;39.20;101006.31;5032439;28;20202;-84
2022/08/02 10:30:34;;;;;;;2.85;2.63;;;;;;;26.91;39.08;101010.16;5027726;28;20206;-85
2022/08/02 10:33:03;;;;;;;2.38;2.13;;;;;;;26.98;38.72;101003.94;5024650;28;20313;-83
2022/08/02 10:35:33;;;;;;;2.33;2.13;;;;;;;27.00;38.10;101002.72;5026162;28;20875;-85
2022/08/02 10:38:02;;;;;;;2.35;2.15;;;;;;;27.10;38.29;101007.84;5024602;28;20293;-83
2022/08/02 10:40:45;;;;;;;2.38;2.03;;;;;;;27.18;38.09;100994.88;5026819;28;20205;-84
2022/08/02 10:43:12;;;;;;;2.38;2.00;;;;;;;27.23;37.99;101005.25;5027659;28;20728;-84
2022/08/02 10:45:39;;;;;;;3.15;1.90;;;;;;;27.30;37.66;100997.91;5030183;28;20237;-83
2022/08/02 10:48:09;;;;;;;4.07;1.83;;;;;;;27.36;37.48;100997.13;5027039;28;20292;-83
2022/08/02 10:50:55;;;;;;;2.03;1.67;;;;;;;27.45;37.80;100995.09;5032628;28;20272;-83
2022/08/02 10:53:27;;;;;;;1.90;1.80;;;;;;;27.52;37.57;100993.25;5030202;28;20213;-83
2022/08/02 10:55:56;;;;;;;1.88;1.60;;;;;;;27.58;37.19;100987.88;5035529;28;20208;-82
2022/08/02 10:58:26;;;;;;;1.67;1.50;;;;;;;27.63;36.19;100984.50;5035674;28;20236;-83
2022/08/02 11:00:54;;;;;;;1.92;1.60;;;;;;;27.63;35.55;100982.63;5036258;28;20283;-82
2022/08/02 11:03:41;;;;;;;1.63;1.50;;;;;;;27.69;35.43;100986.47;5030124;28;20202;-83
2022/08/02 11:06:10;;;;;;;1.33;1.20;;;;;;;27.76;35.01;100983.78;5027934;28;20202;-82
2022/08/02 11:08:38;;;;;;;2.50;1.15;;;;;;;27.84;34.94;100983.59;5023991;28;20237;-81
2022/08/02 11:11:18;;;;;;;1.70;1.60;;;;;;;27.90;34.36;100986.38;5028261;28;20222;-82
2022/08/02 11:14:02;;;;;;;1.50;1.40;;;;;;;27.97;34.47;100983.66;5021495;28;20234;-84
2022/08/02 11:17:04;;;;;;;1.75;1.60;;;;;;;28.06;34.20;100987.94;5021467;28;20203;-85
2022/08/02 11:19:31;;;;;;;1.63;1.30;;;;;;;28.17;34.40;100990.09;5025177;28;20205;-82
2022/08/02 11:22:02;;;;;;;1.90;1.70;;;;;;;28.23;33.71;100981.09;5026150;28;20222;-82
2022/08/02 11:24:31;;;;;;;1.58;1.48;;;;;;;28.29;33.38;100984.94;5024956;28;20684;-83
2022/08/02 11:26:59;;;;;;;2.92;1.50;;;;;;;28.28;33.52;100985.97;5023723;28;20211;-83
2022/08/02 11:29:37;;;;;;;2.05;1.70;;;;;;;28.29;33.82;100988.50;5024325;28;20221;-82
2022/08/02 11:32:04;;;;;;;2.13;1.73;;;;;;;28.34;34.28;100988.72;5025344;28;20213;-82